Time;durP1;ratioP1;P1;durP2;ratioP2;P2;SDS_P1;SDS_P2;PMS_P1;PMS_P2;Temp;Humidity;BMP_temperature;BMP_pressure;BME280_temperature;BME280_humidity;BME280_pressure;Samples;Min_cycle;Max_cycle;Signal;HPM_P1;HPM_P2
2023/03/26 00:00:47;;;;;;;10.07;7.50;;;;;20.50;99634.00;;;;2086328;28;20236;-80
2023/03/26 00:01:48;;;;;;;8.00;6.53;;;;;20.50;99628.00;;;;2088041;28;20211;-80
2023/03/26 00:02:49;;;;;;;11.45;7.70;;;;;20.50;99637.00;;;;2086307;28;20204;-80
2023/03/26 00:03:53;;;;;;;9.07;7.20;;;;;20.50;99627.00;;;;2088334;28;20715;-80
2023/03/26 00:04:53;;;;;;;8.70;6.90;;;;;20.50;99625.00;;;;2087939;28;20197;-80
2023/03/26 00:06:02;;;;;;;8.77;6.90;;;;;20.50;99637.00;;;;2088805;28;20273;-80
2023/03/26 00:07:03;;;;;;;8.70;7.10;;;;;20.50;99628.00;;;;2087958;28;20701;-80
2023/03/26 00:08:04;;;;;;;8.57;6.60;;;;;20.50;99627.00;;;;2088340;28;20630;-80
2023/03/26 00:09:06;;;;;;;10.27;7.57;;;;;20.50;99636.00;;;;2083047;28;20228;-80
2023/03/26 00:10:07;;;;;;;9.85;7.00;;;;;20.50;99633.00;;;;2087158;28;20772;-81
2023/03/26 00:11:09;;;;;;;8.17;6.50;;;;;20.50;99628.00;;;;2084292;28;20225;-81
2023/03/26 00:12:09;;;;;;;8.88;6.00;;;;;20.50;99637.00;;;;2084758;28;20224;-81
2023/03/26 00:13:10;;;;;;;7.83;6.43;;;;;20.50;99626.00;;;;2088556;28;20240;-81
2023/03/26 00:14:12;;;;;;;8.83;6.33;;;;;20.50;99630.00;;;;2089247;28;20220;-81
2023/03/26 00:15:12;;;;;;;8.07;6.03;;;;;20.50;99635.00;;;;2088217;28;20243;-81
2023/03/26 00:16:15;;;;;;;8.83;6.33;;;;;20.50;99631.00;;;;2088180;28;20223;-81
2023/03/26 00:17:15;;;;;;;8.18;5.82;;;;;20.50;99636.00;;;;2087923;28;20216;-80
2023/03/26 00:18:18;;;;;;;8.17;6.27;;;;;20.50;99635.00;;;;2088164;28;20219;-80
2023/03/26 00:19:19;;;;;;;7.00;5.90;;;;;20.50;99634.00;;;;2085447;28;20267;-80
2023/03/26 00:20:19;;;;;;;8.00;6.00;;;;;20.50;99631.00;;;;2088031;28;20290;-80
2023/03/26 00:21:21;;;;;;;9.67;5.97;;;;;20.50;99628.00;;;;2087016;28;20251;-80
2023/03/26 00:22:22;;;;;;;8.18;5.50;;;;;20.50;99629.00;;;;2088271;28;20236;-80
2023/03/26 00:23:23;;;;;;;7.57;5.70;;;;;20.50;99629.00;;;;2087208;28;20209;-80
2023/03/26 00:24:28;;;;;;;9.50;5.93;;;;;20.50;99633.00;;;;2087293;28;20225;-80
2023/03/26 00:25:28;;;;;;;8.55;6.32;;;;;20.40;99630.00;;;;2088739;28;20213;-80
2023/03/26 00:26:30;;;;;;;6.00;5.30;;;;;20.40;99633.00;;;;2088053;28;20205;-81
2023/03/26 00:27:31;;;;;;;7.75;5.45;;;;;20.50;99623.00;;;;2088550;28;20216;-81
2023/03/26 00:28:31;;;;;;;6.47;5.20;;;;;20.40;99617.00;;;;2087479;28;20232;-80
2023/03/26 00:29:32;;;;;;;9.93;6.60;;;;;20.40;99625.00;;;;2085942;28;20213;-81
2023/03/26 00:30:34;;;;;;;7.90;5.43;;;;;20.40;99626.00;;;;2084382;28;20254;-81
2023/03/26 00:31:36;;;;;;;8.05;5.50;;;;;20.40;99623.00;;;;2088542;28;20201;-80
2023/03/26 00:32:37;;;;;;;7.53;5.30;;;;;20.50;99617.00;;;;2088240;28;20683;-80
2023/03/26 00:33:39;;;;;;;8.23;5.17;;;;;20.50;99619.00;;;;2087395;28;20224;-80
2023/03/26 00:34:40;;;;;;;6.97;4.82;;;;;20.50;99621.00;;;;2075936;28;20261;-80
2023/03/26 00:35:42;;;;;;;9.20;6.23;;;;;20.40;99610.00;;;;2086541;28;20262;-80
2023/03/26 00:36:42;;;;;;;7.78;5.03;;;;;20.50;99614.00;;;;2088585;28;20216;-81
2023/03/26 00:37:45;;;;;;;7.20;5.07;;;;;20.40;99610.00;;;;2087668;28;20300;-81
2023/03/26 00:38:46;;;;;;;7.50;4.85;;;;;20.40;99618.00;;;;2088627;28;20663;-81
2023/03/26 00:39:47;;;;;;;6.68;4.65;;;;;20.40;99621.00;;;;2083172;28;20217;-80
2023/03/26 00:40:49;;;;;;;6.80;5.20;;;;;20.40;99617.00;;;;2087957;28;20663;-81
2023/03/26 00:41:53;;;;;;;7.55;5.13;;;;;20.40;99610.00;;;;2088132;28;20208;-80
2023/03/26 00:42:53;;;;;;;6.82;4.60;;;;;20.40;99619.00;;;;2087387;28;20262;-81
2023/03/26 00:43:55;;;;;;;7.83;4.67;;;;;20.40;99609.00;;;;2088297;28;20676;-80
2023/03/26 00:44:56;;;;;;;7.47;4.53;;;;;20.40;99606.00;;;;2086411;28;20592;-80
2023/03/26 00:45:57;;;;;;;7.75;4.47;;;;;20.40;99612.00;;;;2088617;28;20213;-80
2023/03/26 00:46:57;;;;;;;8.07;4.67;;;;;20.40;99609.00;;;;2087682;28;20205;-81
2023/03/26 00:47:57;;;;;;;8.13;5.47;;;;;20.40;99617.00;;;;2088542;28;20687;-80
2023/03/26 00:48:58;;;;;;;11.03;5.20;;;;;20.40;99611.00;;;;2088606;28;20726;-82
2023/03/26 00:49:59;;;;;;;8.03;4.93;;;;;20.40;99610.00;;;;2087732;28;20229;-81
2023/03/26 00:51:00;;;;;;;6.63;4.00;;;;;20.40;99605.00;;;;2088202;28;20447;-81
2023/03/26 00:52:01;;;;;;;5.50;4.10;;;;;20.40;99606.00;;;;2085716;28;20296;-82
2023/03/26 00:53:02;;;;;;;7.00;4.40;;;;;20.40;99595.00;;;;2085414;28;20229;-82
2023/03/26 00:54:02;;;;;;;7.23;4.67;;;;;20.40;99599.00;;;;2087282;28;20205;-81
2023/03/26 00:55:03;;;;;;;6.90;4.33;;;;;20.40;99605.00;;;;2088314;28;20213;-82
2023/03/26 00:56:04;;;;;;;6.60;3.97;;;;;20.40;99600.00;;;;2083567;28;20252;-82
2023/03/26 00:57:05;;;;;;;7.70;4.47;;;;;20.40;99606.00;;;;2087059;28;20684;-82
2023/03/26 00:58:09;;;;;;;6.43;4.40;;;;;20.40;99601.00;;;;2088304;28;20244;-82
2023/03/26 00:59:09;;;;;;;7.55;3.70;;;;;20.40;99598.00;;;;2093161;28;20278;-81
2023/03/26 01:00:12;;;;;;;5.27;3.43;;;;;20.40;99599.00;;;;2095493;28;20216;-81
2023/03/26 01:01:14;;;;;;;7.15;4.88;;;;;20.40;99608.00;;;;2078964;28;20518;-82
2023/03/26 01:02:17;;;;;;;9.10;5.10;;;;;20.40;99600.00;;;;2072001;28;20225;-82
2023/03/26 01:03:18;;;;;;;6.45;4.25;;;;;20.40;99605.00;;;;2086547;28;20209;-81
2023/03/26 01:04:29;;;;;;;5.63;3.80;;;;;20.30;99601.00;;;;2088398;28;21040;-81
2023/03/26 01:05:41;;;;;;;9.27;4.03;;;;;20.40;99600.00;;;;2086908;28;20213;-82
2023/03/26 01:06:44;;;;;;;8.15;4.00;;;;;20.40;99609.00;;;;2087964;28;21035;-82
2023/03/26 01:07:45;;;;;;;7.82;3.65;;;;;20.40;99595.00;;;;2087627;28;20259;-81
2023/03/26 01:08:46;;;;;;;6.80;4.43;;;;;20.30;99585.00;;;;2083252;28;20267;-82
2023/03/26 01:09:51;;;;;;;7.00;4.25;;;;;20.40;99581.00;;;;2078920;28;20519;-81
2023/03/26 01:10:52;;;;;;;6.65;3.72;;;;;20.30;99581.00;;;;2074097;28;20697;-82
2023/03/26 01:11:53;;;;;;;7.13;3.72;;;;;20.30;99579.00;;;;2076548;28;20206;-81
2023/03/26 01:12:53;;;;;;;6.70;3.40;;;;;20.30;99593.00;;;;2079570;28;20227;-81
2023/03/26 01:13:59;;;;;;;8.53;3.70;;;;;20.30;99590.00;;;;2087327;28;20205;-81
2023/03/26 01:14:59;;;;;;;5.10;3.30;;;;;20.30;99585.00;;;;2087803;28;20297;-82
2023/03/26 01:16:00;;;;;;;7.20;4.20;;;;;20.30;99589.00;;;;2081220;28;20213;-81
2023/03/26 01:17:02;;;;;;;7.70;3.13;;;;;20.30;99575.00;;;;2071947;28;20209;-82
2023/03/26 01:18:08;;;;;;;5.07;3.03;;;;;20.30;99583.00;;;;2087850;28;20455;-82
2023/03/26 01:19:15;;;;;;;5.32;3.50;;;;;20.30;99592.00;;;;2090875;28;20633;-81
2023/03/26 01:20:18;;;;;;;5.95;3.35;;;;;20.30;99565.00;;;;2080251;28;20217;-82
2023/03/26 01:21:21;;;;;;;7.00;3.88;;;;;20.30;99582.00;;;;2074115;28;20205;-82
2023/03/26 01:22:24;;;;;;;6.30;3.90;;;;;20.30;99582.00;;;;2062804;28;20223;-81
2023/03/26 01:23:27;;;;;;;8.32;3.67;;;;;20.30;99582.00;;;;2072293;28;20711;-81
2023/03/26 01:24:28;;;;;;;6.82;3.50;;;;;20.30;99575.00;;;;2095796;28;20262;-81
2023/03/26 01:25:28;;;;;;;6.97;3.33;;;;;20.30;99583.00;;;;2087528;28;20212;-81
2023/03/26 01:26:51;;;;;;;6.63;3.50;;;;;20.30;99576.00;;;;2081254;28;20221;-82
2023/03/26 01:27:53;;;;;;;6.85;3.42;;;;;20.30;99567.00;;;;2079398;28;20230;-81
2023/03/26 01:28:54;;;;;;;7.22;3.90;;;;;20.30;99573.00;;;;2078469;28;20215;-82
2023/03/26 01:30:16;;;;;;;5.25;3.10;;;;;20.30;99570.00;;;;2078428;28;20197;-81
2023/03/26 01:31:28;;;;;;;8.60;3.63;;;;;20.30;99562.00;;;;2091861;28;20207;-80
2023/03/26 01:32:47;;;;;;;7.82;3.35;;;;;20.30;99582.00;;;;2084323;28;20236;-81
2023/03/26 01:33:50;;;;;;;7.22;3.67;;;;;20.30;99574.00;;;;2075992;28;20210;-81
2023/03/26 01:35:06;;;;;;;6.88;3.25;;;;;20.30;99568.00;;;;2076725;28;20214;-81
2023/03/26 01:36:24;;;;;;;5.20;3.17;;;;;20.30;99561.00;;;;2087638;28;20216;-81
2023/03/26 01:37:32;;;;;;;5.78;2.97;;;;;20.20;99574.00;;;;2072133;28;20296;-81
2023/03/26 01:38:50;;;;;;;6.00;3.40;;;;;20.20;99570.00;;;;2071692;28;20213;-81
2023/03/26 01:40:03;;;;;;;7.28;3.50;;;;;20.30;99562.00;;;;2080737;28;20595;-81
2023/03/26 01:41:08;;;;;;;6.85;3.13;;;;;20.30;99560.00;;;;2087496;28;20303;-81
2023/03/26 01:42:10;;;;;;;7.93;3.42;;;;;20.20;99560.00;;;;2079462;28;20221;-81
2023/03/26 01:43:27;;;;;;;5.50;3.20;;;;;20.20;99557.00;;;;2073613;28;20276;-81
2023/03/26 01:44:36;;;;;;;7.47;3.10;;;;;20.30;99562.00;;;;2081335;28;20229;-82
2023/03/26 01:45:38;;;;;;;7.82;3.25;;;;;20.20;99569.00;;;;2074771;28;20684;-82
2023/03/26 01:46:38;;;;;;;7.10;3.10;;;;;20.20;99562.00;;;;2074945;28;20223;-81
2023/03/26 01:47:39;;;;;;;7.27;2.70;;;;;20.20;99547.00;;;;2076334;28;20221;-81
2023/03/26 01:48:41;;;;;;;5.13;2.77;;;;;20.30;99552.00;;;;2079334;28;20248;-81
2023/03/26 01:49:41;;;;;;;4.43;2.90;;;;;20.30;99565.00;;;;2077223;28;20229;-82
2023/03/26 01:50:41;;;;;;;5.60;3.03;;;;;20.20;99548.00;;;;2087508;28;20255;-81
2023/03/26 01:51:42;;;;;;;8.77;3.80;;;;;20.20;99564.00;;;;2084121;28;20213;-81
2023/03/26 01:52:42;;;;;;;4.90;3.00;;;;;20.20;99556.00;;;;2086426;28;20216;-82
2023/03/26 01:53:44;;;;;;;6.90;3.00;;;;;20.20;99554.00;;;;2083783;28;20259;-81
2023/03/26 01:54:45;;;;;;;6.80;3.05;;;;;20.20;99545.00;;;;2084648;28;20232;-82
2023/03/26 01:55:52;;;;;;;6.43;2.58;;;;;20.20;99547.00;;;;2075781;28;20205;-82
2023/03/26 01:57:05;;;;;;;7.15;3.40;;;;;20.20;99549.00;;;;2076553;28;20791;-82
2023/03/26 01:58:26;;;;;;;6.70;3.38;;;;;20.20;99543.00;;;;2081440;28;20218;-82
2023/03/26 01:59:56;;;;;;;7.05;2.40;;;;;20.20;99541.00;;;;2080217;28;20209;-82
2023/03/26 02:01:11;;;;;;;7.45;3.13;;;;;20.20;99545.00;;;;2085539;28;20270;-82
2023/03/26 02:02:13;;;;;;;7.88;2.75;;;;;20.20;99535.00;;;;2092823;28;20230;-82
2023/03/26 02:03:29;;;;;;;5.55;2.60;;;;;20.20;99529.00;;;;2079463;28;20221;-82
2023/03/26 02:04:38;;;;;;;7.10;3.13;;;;;20.20;99525.00;;;;2076841;28;20236;-82
2023/03/26 02:05:47;;;;;;;3.92;2.45;;;;;20.20;99529.00;;;;2081491;28;20221;-83
2023/03/26 02:06:52;;;;;;;6.35;2.63;;;;;20.20;99520.00;;;;2072935;28;20722;-82
2023/03/26 02:07:57;;;;;;;5.50;2.65;;;;;20.20;99520.00;;;;2074217;28;20720;-82
2023/03/26 02:09:02;;;;;;;3.67;2.35;;;;;20.20;99529.00;;;;2087227;28;20243;-82
2023/03/26 02:10:09;;;;;;;7.35;3.13;;;;;20.20;99521.00;;;;2076272;28;20214;-82
2023/03/26 02:11:11;;;;;;;5.78;2.55;;;;;20.20;99512.00;;;;2067165;28;20226;-82
2023/03/26 02:12:12;;;;;;;8.55;2.78;;;;;20.20;99515.00;;;;2072959;28;20347;-82
2023/03/26 02:13:13;;;;;;;5.70;2.85;;;;;20.20;99516.00;;;;2078826;28;20237;-82
2023/03/26 02:14:13;;;;;;;5.37;2.90;;;;;20.20;99518.00;;;;2063442;28;20220;-82
2023/03/26 02:15:15;;;;;;;7.70;2.90;;;;;20.20;99507.00;;;;2077690;28;20213;-83
2023/03/26 02:16:15;;;;;;;5.60;2.83;;;;;20.20;99506.00;;;;2080509;28;20595;-82
2023/03/26 02:17:17;;;;;;;9.47;3.10;;;;;20.20;99515.00;;;;2086523;28;20217;-82
2023/03/26 02:18:23;;;;;;;6.65;2.60;;;;;20.10;99508.00;;;;2086790;28;20405;-81
2023/03/26 02:19:23;;;;;;;7.88;2.22;;;;;20.20;99507.00;;;;2086805;28;20213;-82
2023/03/26 02:20:24;;;;;;;6.17;2.80;;;;;20.10;99505.00;;;;2088064;28;20571;-82
2023/03/26 02:21:25;;;;;;;6.43;2.50;;;;;20.20;99500.00;;;;2085973;28;20771;-82
2023/03/26 02:22:28;;;;;;;7.23;2.83;;;;;20.10;99505.00;;;;2086813;28;20483;-81
2023/03/26 02:23:29;;;;;;;6.20;2.95;;;;;20.10;99508.00;;;;2087845;28;20455;-81
2023/03/26 02:24:29;;;;;;;6.70;3.07;;;;;20.20;99503.00;;;;2087021;28;20259;-82
2023/03/26 02:25:29;;;;;;;8.80;3.00;;;;;20.10;99503.00;;;;2085213;28;20212;-81
2023/03/26 02:26:30;;;;;;;5.60;2.30;;;;;20.10;99499.00;;;;2085948;28;20217;-82
2023/03/26 02:27:32;;;;;;;5.28;2.83;;;;;20.10;99502.00;;;;2085149;28;20210;-82
2023/03/26 02:28:33;;;;;;;5.43;2.47;;;;;20.10;99501.00;;;;2086566;28;20283;-81
2023/03/26 02:29:36;;;;;;;5.47;2.40;;;;;20.10;99491.00;;;;2087923;28;20718;-82
2023/03/26 02:30:37;;;;;;;6.18;3.25;;;;;20.10;99494.00;;;;2086541;28;20224;-81
2023/03/26 02:31:37;;;;;;;6.47;2.80;;;;;20.10;99498.00;;;;2089983;28;21019;-82
2023/03/26 02:32:37;;;;;;;9.17;3.07;;;;;20.10;99495.00;;;;2087474;28;20313;-81
2023/03/26 02:33:38;;;;;;;8.83;2.93;;;;;20.10;99490.00;;;;2086937;28;20209;-81
2023/03/26 02:34:39;;;;;;;6.13;2.30;;;;;20.10;99498.00;;;;2087082;28;20223;-81
2023/03/26 02:35:44;;;;;;;6.30;2.50;;;;;20.20;99496.00;;;;2086148;28;20217;-81
2023/03/26 02:36:44;;;;;;;7.50;3.15;;;;;20.10;99493.00;;;;2087994;28;20223;-81
2023/03/26 02:37:45;;;;;;;5.40;2.90;;;;;20.10;99486.00;;;;2087055;28;20212;-82
2023/03/26 02:38:46;;;;;;;6.03;2.63;;;;;20.20;99500.00;;;;2084416;28;20213;-81
2023/03/26 02:39:46;;;;;;;8.10;3.27;;;;;20.10;99488.00;;;;2087860;28;20455;-81
2023/03/26 02:40:46;;;;;;;5.73;2.70;;;;;20.10;99494.00;;;;2086215;28;20208;-78
2023/03/26 02:41:47;;;;;;;6.30;2.70;;;;;20.10;99489.00;;;;2087900;28;20212;-79
2023/03/26 02:42:47;;;;;;;6.47;2.83;;;;;20.10;99489.00;;;;2087126;28;20232;-81
2023/03/26 02:43:47;;;;;;;7.77;3.33;;;;;20.10;99492.00;;;;2086804;28;20213;-80
2023/03/26 02:44:48;;;;;;;6.97;2.73;;;;;20.10;99488.00;;;;2087275;28;20204;-81
2023/03/26 02:45:48;;;;;;;6.13;2.57;;;;;20.10;99483.00;;;;2087898;28;20251;-80
2023/03/26 02:46:49;;;;;;;6.60;2.80;;;;;20.10;99485.00;;;;2087885;28;20208;-82
2023/03/26 02:47:49;;;;;;;7.13;2.67;;;;;20.10;99493.00;;;;2087099;28;20703;-81
2023/03/26 02:48:50;;;;;;;5.10;2.50;;;;;20.10;99484.00;;;;2087854;28;20278;-81
2023/03/26 02:49:50;;;;;;;7.83;2.50;;;;;20.10;99486.00;;;;2087097;28;20262;-81
2023/03/26 02:50:53;;;;;;;5.63;2.30;;;;;20.10;99485.00;;;;2087750;28;20212;-81
2023/03/26 02:51:55;;;;;;;6.38;2.90;;;;;20.10;99475.00;;;;2083949;28;20274;-81
2023/03/26 02:52:55;;;;;;;7.32;2.63;;;;;20.10;99486.00;;;;2087176;28;20219;-81
2023/03/26 02:53:55;;;;;;;7.00;2.80;;;;;20.10;99485.00;;;;2087553;28;20213;-81
2023/03/26 02:54:56;;;;;;;4.57;2.40;;;;;20.10;99484.00;;;;2086072;28;20219;-81
2023/03/26 02:55:56;;;;;;;7.27;2.53;;;;;20.10;99481.00;;;;2087874;28;20235;-82
2023/03/26 02:56:57;;;;;;;4.50;2.53;;;;;20.10;99481.00;;;;2084489;28;20579;-82
2023/03/26 02:57:57;;;;;;;5.03;2.50;;;;;20.10;99483.00;;;;2087733;28;20215;-81
2023/03/26 02:58:57;;;;;;;5.57;2.70;;;;;20.10;99475.00;;;;2087326;28;20205;-82
2023/03/26 03:00:11;;;;;;;4.57;2.37;;;;;20.10;99481.00;;;;2086866;28;20215;-81
2023/03/26 03:01:12;;;;;;;7.10;3.00;;;;;20.10;99476.00;;;;2079846;28;20213;-82
2023/03/26 03:02:13;;;;;;;6.20;2.63;;;;;20.10;99472.00;;;;2086201;28;20216;-81
2023/03/26 03:03:15;;;;;;;7.38;3.25;;;;;20.10;99471.00;;;;2087700;28;20209;-82
2023/03/26 03:04:16;;;;;;;6.75;2.40;;;;;20.10;99469.00;;;;2086770;28;20212;-82
2023/03/26 03:05:17;;;;;;;6.37;2.50;;;;;20.10;99468.00;;;;2087639;28;20683;-78
2023/03/26 03:06:18;;;;;;;6.32;2.75;;;;;20.10;99456.00;;;;2077770;28;20456;-81
2023/03/26 03:07:19;;;;;;;7.90;2.80;;;;;20.00;99453.00;;;;2078508;28;20210;-81
2023/03/26 03:08:20;;;;;;;8.40;2.78;;;;;20.10;99451.00;;;;2087958;28;20583;-81
2023/03/26 03:09:21;;;;;;;8.30;2.55;;;;;20.10;99448.00;;;;2086715;28;20213;-81
2023/03/26 03:10:21;;;;;;;5.90;2.47;;;;;20.10;99449.00;;;;2089080;28;20232;-81
2023/03/26 03:11:25;;;;;;;7.13;2.67;;;;;20.00;99448.00;;;;2091049;28;20465;-81
2023/03/26 03:12:25;;;;;;;6.45;2.58;;;;;20.00;99442.00;;;;2083977;28;20209;-82
2023/03/26 03:13:26;;;;;;;7.07;2.53;;;;;20.00;99439.00;;;;2086887;28;20585;-82
2023/03/26 03:14:26;;;;;;;5.50;2.80;;;;;20.10;99442.00;;;;2086944;28;20753;-82
2023/03/26 03:15:30;;;;;;;4.33;2.33;;;;;20.10;99436.00;;;;2086878;28;20536;-83
2023/03/26 03:16:30;;;;;;;6.72;2.40;;;;;20.00;99437.00;;;;2085441;28;20204;-82
2023/03/26 03:17:33;;;;;;;4.20;2.10;;;;;20.10;99445.00;;;;2086856;28;20213;-82
2023/03/26 03:18:34;;;;;;;7.30;2.53;;;;;20.00;99437.00;;;;2086803;28;20838;-82
2023/03/26 03:19:36;;;;;;;5.60;2.60;;;;;20.10;99437.00;;;;2084424;28;20206;-82
2023/03/26 03:20:36;;;;;;;8.30;2.92;;;;;20.00;99430.00;;;;2083409;28;20220;-82
2023/03/26 03:21:37;;;;;;;5.90;2.50;;;;;20.00;99429.00;;;;2087717;28;20809;-81
2023/03/26 03:22:37;;;;;;;8.67;2.53;;;;;20.00;99415.00;;;;2086928;28;20220;-82
2023/03/26 03:23:38;;;;;;;6.90;2.33;;;;;20.00;99431.00;;;;2088383;28;20679;-82
2023/03/26 03:24:38;;;;;;;7.03;2.60;;;;;20.00;99427.00;;;;2087913;28;20216;-82
2023/03/26 03:25:39;;;;;;;5.90;2.40;;;;;20.00;99428.00;;;;2086446;28;20233;-82
2023/03/26 03:26:41;;;;;;;5.03;2.20;;;;;20.00;99434.00;;;;2087688;28;20212;-82
2023/03/26 03:27:41;;;;;;;4.63;2.15;;;;;20.00;99423.00;;;;2086981;28;20220;-83
2023/03/26 03:28:43;;;;;;;4.63;2.40;;;;;20.00;99423.00;;;;2088104;28;20213;-82
2023/03/26 03:29:44;;;;;;;6.40;2.45;;;;;20.00;99424.00;;;;2087651;28;20562;-82
2023/03/26 03:30:44;;;;;;;5.83;2.40;;;;;20.00;99420.00;;;;2086851;28;20244;-82
2023/03/26 03:31:45;;;;;;;5.17;2.57;;;;;20.00;99418.00;;;;2087226;28;20299;-81
2023/03/26 03:32:45;;;;;;;7.20;2.43;;;;;20.00;99420.00;;;;2086739;28;20223;-82
2023/03/26 03:33:46;;;;;;;7.30;2.57;;;;;20.00;99423.00;;;;2087423;28;20216;-82
2023/03/26 03:34:48;;;;;;;5.30;2.10;;;;;20.00;99411.00;;;;2084094;28;20225;-82
2023/03/26 03:35:49;;;;;;;5.28;2.78;;;;;20.00;99414.00;;;;2076801;28;20209;-81
2023/03/26 03:36:49;;;;;;;6.47;2.60;;;;;20.00;99416.00;;;;2086949;28;20660;-81
2023/03/26 03:37:49;;;;;;;4.80;2.33;;;;;20.00;99427.00;;;;2086851;28;20217;-82
2023/03/26 03:38:50;;;;;;;5.73;2.70;;;;;20.00;99420.00;;;;2087642;28;20327;-81
2023/03/26 03:39:50;;;;;;;5.87;2.87;;;;;20.00;99419.00;;;;2086871;28;20209;-81
2023/03/26 03:40:53;;;;;;;5.33;2.50;;;;;20.00;99421.00;;;;2087739;28;20205;-81
2023/03/26 03:41:53;;;;;;;6.03;2.10;;;;;20.00;99412.00;;;;2086156;28;20303;-82
2023/03/26 03:42:54;;;;;;;6.43;2.40;;;;;20.00;99418.00;;;;2086921;28;20690;-82
2023/03/26 03:43:54;;;;;;;5.53;2.60;;;;;20.00;99416.00;;;;2086635;28;20208;-82
2023/03/26 03:44:55;;;;;;;7.83;2.57;;;;;20.00;99420.00;;;;2086279;28;20259;-81
2023/03/26 03:45:55;;;;;;;7.20;2.83;;;;;20.00;99417.00;;;;2087269;28;20210;-82
2023/03/26 03:46:55;;;;;;;7.10;2.70;;;;;20.00;99415.00;;;;2086370;28;20215;-81
2023/03/26 03:47:56;;;;;;;6.33;2.33;;;;;20.00;99414.00;;;;2087536;28;20209;-82
2023/03/26 03:48:56;;;;;;;7.20;2.30;;;;;20.00;99402.00;;;;2086839;28;20235;-82
2023/03/26 03:49:58;;;;;;;7.13;2.47;;;;;20.00;99406.00;;;;2086770;28;20687;-81
2023/03/26 03:50:59;;;;;;;5.80;2.28;;;;;20.00;99405.00;;;;2086292;28;20209;-82
2023/03/26 03:52:00;;;;;;;6.17;2.37;;;;;20.00;99415.00;;;;2085993;28;20701;-82
2023/03/26 03:53:00;;;;;;;9.07;2.15;;;;;20.00;99411.00;;;;2086801;28;20263;-82
2023/03/26 03:54:01;;;;;;;4.57;1.90;;;;;20.00;99395.00;;;;2086649;28;20507;-81
2023/03/26 03:55:02;;;;;;;7.38;2.10;;;;;20.00;99403.00;;;;2087694;28;20213;-82
2023/03/26 03:56:03;;;;;;;7.37;2.73;;;;;20.00;99398.00;;;;2085499;28;20236;-82
2023/03/26 03:57:03;;;;;;;4.25;2.17;;;;;20.00;99402.00;;;;2088754;28;20295;-82
2023/03/26 03:58:04;;;;;;;6.13;2.30;;;;;20.00;99401.00;;;;2082259;28;20216;-82
2023/03/26 03:59:05;;;;;;;5.40;2.60;;;;;20.00;99391.00;;;;2088641;28;20235;-82
2023/03/26 04:00:07;;;;;;;6.43;2.77;;;;;20.00;99393.00;;;;2081489;28;20214;-82
2023/03/26 04:01:09;;;;;;;8.68;2.42;;;;;20.00;99399.00;;;;2088022;28;20609;-82
2023/03/26 04:02:10;;;;;;;6.40;2.33;;;;;20.00;99393.00;;;;2088035;28;20737;-82
2023/03/26 04:03:13;;;;;;;6.50;2.30;;;;;20.00;99391.00;;;;2082886;28;21319;-82
2023/03/26 04:04:13;;;;;;;5.82;2.30;;;;;20.00;99403.00;;;;2089050;28;20244;-82
2023/03/26 04:05:13;;;;;;;6.57;2.40;;;;;20.00;99393.00;;;;2087780;28;20217;-82
2023/03/26 04:06:17;;;;;;;4.43;2.20;;;;;20.00;99397.00;;;;2088648;28;20282;-82
2023/03/26 04:07:18;;;;;;;5.32;2.20;;;;;20.00;99393.00;;;;2088133;28;20216;-82
2023/03/26 04:08:18;;;;;;;5.17;2.50;;;;;20.00;99385.00;;;;2087197;28;20215;-76
2023/03/26 04:09:18;;;;;;;5.13;1.93;;;;;20.00;99394.00;;;;2088274;28;20260;-81
2023/03/26 04:10:19;;;;;;;9.47;2.50;;;;;20.00;99400.00;;;;2088186;28;20297;-82
2023/03/26 04:11:19;;;;;;;6.43;2.17;;;;;19.90;99384.00;;;;2090960;28;20266;-82
2023/03/26 04:12:19;;;;;;;5.43;2.50;;;;;19.90;99382.00;;;;2081611;28;20265;-81
2023/03/26 04:13:20;;;;;;;5.70;2.17;;;;;19.90;99382.00;;;;2088986;28;20229;-82
2023/03/26 04:14:20;;;;;;;5.60;2.10;;;;;19.90;99381.00;;;;2087926;28;20263;-82
2023/03/26 04:15:21;;;;;;;5.80;3.10;;;;;19.90;99376.00;;;;2087432;28;20676;-82
2023/03/26 04:16:21;;;;;;;4.80;2.30;;;;;19.90;99384.00;;;;2087568;28;20213;-82
2023/03/26 04:17:21;;;;;;;5.50;2.23;;;;;19.90;99379.00;;;;2084776;28;20219;-82
2023/03/26 04:18:22;;;;;;;4.47;2.07;;;;;20.00;99381.00;;;;2088939;28;20216;-82
2023/03/26 04:19:22;;;;;;;6.03;2.43;;;;;19.90;99373.00;;;;2088204;28;20286;-82
2023/03/26 04:20:22;;;;;;;4.40;1.90;;;;;19.90;99372.00;;;;2088890;28;20240;-82
2023/03/26 04:21:25;;;;;;;4.63;2.13;;;;;20.00;99374.00;;;;2087094;28;20235;-82
2023/03/26 04:22:35;;;;;;;4.88;2.10;;;;;19.90;99368.00;;;;2087759;28;20205;-82
2023/03/26 04:23:35;;;;;;;5.03;2.10;;;;;19.90;99365.00;;;;2087468;28;20731;-82
2023/03/26 04:24:38;;;;;;;6.10;2.37;;;;;19.90;99364.00;;;;2088213;28;20209;-82
2023/03/26 04:25:41;;;;;;;5.50;2.33;;;;;19.90;99351.00;;;;2088687;28;20217;-82
2023/03/26 04:26:41;;;;;;;6.07;2.10;;;;;19.90;99364.00;;;;2087290;28;20221;-82
2023/03/26 04:27:42;;;;;;;4.50;1.97;;;;;19.90;99360.00;;;;2088224;28;20280;-82
2023/03/26 04:28:47;;;;;;;4.72;2.00;;;;;19.90;99355.00;;;;2087744;28;20209;-82
2023/03/26 04:29:48;;;;;;;6.45;2.10;;;;;20.00;99360.00;;;;2088859;28;20262;-82
2023/03/26 04:30:52;;;;;;;4.90;2.00;;;;;19.90;99351.00;;;;2087666;28;20279;-73
2023/03/26 04:32:05;;;;;;;4.70;1.90;;;;;19.90;99352.00;;;;2086509;28;20931;-81
2023/03/26 04:33:05;;;;;;;5.85;2.10;;;;;19.90;99349.00;;;;2087966;28;20212;-82
2023/03/26 04:34:07;;;;;;;7.37;3.20;;;;;19.90;99349.00;;;;2086901;28;20234;-82
2023/03/26 04:35:09;;;;;;;6.88;2.42;;;;;19.90;99349.00;;;;2087885;28;20213;-82
2023/03/26 04:36:10;;;;;;;4.55;1.55;;;;;19.90;99347.00;;;;2084442;28;20224;-82
2023/03/26 04:37:23;;;;;;;9.03;2.37;;;;;20.00;99356.00;;;;2069739;28;20567;-82
2023/03/26 04:38:24;;;;;;;4.93;2.30;;;;;19.90;99341.00;;;;2068582;28;20457;-81
2023/03/26 04:39:28;;;;;;;5.87;1.90;;;;;19.90;99342.00;;;;2079861;28;20214;-81
2023/03/26 04:40:29;;;;;;;4.68;1.75;;;;;19.90;99335.00;;;;2087165;28;20746;-81
2023/03/26 04:41:31;;;;;;;9.90;2.30;;;;;19.90;99344.00;;;;2080258;28;20578;-82
2023/03/26 04:42:32;;;;;;;5.57;2.10;;;;;19.90;99341.00;;;;2084874;28;20217;-81
2023/03/26 04:43:34;;;;;;;7.30;2.03;;;;;19.90;99340.00;;;;2087568;28;20220;-82
2023/03/26 04:44:34;;;;;;;7.03;2.55;;;;;19.90;99332.00;;;;2087378;28;20236;-81
2023/03/26 04:45:35;;;;;;;10.30;2.60;;;;;19.90;99337.00;;;;2087816;28;20201;-82
2023/03/26 04:46:35;;;;;;;5.90;2.10;;;;;19.90;99329.00;;;;2088689;28;20239;-81
2023/03/26 04:47:35;;;;;;;5.93;2.00;;;;;19.90;99331.00;;;;2087889;28;20205;-81
2023/03/26 04:48:37;;;;;;;7.47;2.13;;;;;19.90;99333.00;;;;2088728;28;20200;-82
2023/03/26 04:49:37;;;;;;;4.13;2.20;;;;;19.90;99335.00;;;;2088327;28;20201;-82
2023/03/26 04:50:38;;;;;;;5.30;2.03;;;;;19.90;99336.00;;;;2087783;28;20632;-81
2023/03/26 04:51:40;;;;;;;7.87;2.10;;;;;19.90;99324.00;;;;2079121;28;20803;-82
2023/03/26 04:52:41;;;;;;;5.68;2.40;;;;;19.90;99327.00;;;;2070722;28;20297;-81
2023/03/26 04:53:41;;;;;;;4.90;2.00;;;;;19.90;99326.00;;;;2071948;28;20202;-81
2023/03/26 04:54:44;;;;;;;5.93;2.23;;;;;19.90;99327.00;;;;2086987;28;20795;-81
2023/03/26 04:55:47;;;;;;;6.55;2.22;;;;;19.90;99328.00;;;;2087612;28;20221;-82
2023/03/26 04:56:56;;;;;;;6.22;2.10;;;;;19.90;99323.00;;;;2087258;28;20282;-81
2023/03/26 04:57:58;;;;;;;6.25;2.30;;;;;19.90;99320.00;;;;2087311;28;20219;-81
2023/03/26 04:58:59;;;;;;;5.70;2.20;;;;;19.90;99320.00;;;;2081755;28;20210;-81
2023/03/26 04:59:59;;;;;;;4.67;1.90;;;;;19.90;99318.00;;;;2087133;28;20287;-81
2023/03/26 05:01:00;;;;;;;6.10;2.00;;;;;19.90;99317.00;;;;2088258;28;20326;-81
2023/03/26 05:02:02;;;;;;;5.43;2.20;;;;;19.90;99314.00;;;;2087447;28;20201;-81
2023/03/26 05:03:03;;;;;;;4.07;2.05;;;;;19.90;99321.00;;;;2088555;28;20455;-81
2023/03/26 05:04:03;;;;;;;7.27;2.40;;;;;19.90;99306.00;;;;2084109;28;20303;-82
2023/03/26 05:05:03;;;;;;;7.00;1.90;;;;;19.90;99308.00;;;;2084336;28;20216;-81
2023/03/26 05:06:04;;;;;;;6.27;1.93;;;;;19.90;99306.00;;;;2088294;28;20217;-81
2023/03/26 05:07:04;;;;;;;4.63;2.13;;;;;19.90;99313.00;;;;2086940;28;20247;-82
2023/03/26 05:08:05;;;;;;;4.80;2.10;;;;;19.90;99304.00;;;;2086647;28;20762;-82
2023/03/26 05:09:05;;;;;;;7.10;2.30;;;;;20.00;99305.00;;;;2087835;28;20253;-82
2023/03/26 05:10:06;;;;;;;4.67;1.67;;;;;20.00;99298.00;;;;2087042;28;20232;-81
2023/03/26 05:11:10;;;;;;;3.97;1.73;;;;;20.00;99300.00;;;;2088256;28;20236;-81
2023/03/26 05:12:10;;;;;;;5.68;2.03;;;;;20.10;99306.00;;;;2080837;28;20260;-82
2023/03/26 05:13:10;;;;;;;3.17;1.80;;;;;20.10;99305.00;;;;2079659;28;20269;-82